Time;durP1;ratioP1;P1;durP2;ratioP2;P2;SDS_P1;SDS_P2;PMS_P1;PMS_P2;Temp;Humidity;BMP_temperature;BMP_pressure;BME280_temperature;BME280_humidity;BME280_pressure;Samples;Min_cycle;Max_cycle;Signal;HPM_P1;HPM_P2
2023/01/10 00:03:12;;;;;;;2.20;1.13;;;;;;;8.79;58.58;97376.16;8311971;28;20254;-73
2023/01/10 00:07:15;;;;;;;1.83;1.20;;;;;;;9.14;58.57;97422.75;8311535;28;20286;-73
2023/01/10 00:15:39;;;;;;;2.07;1.00;;;;;;;8.78;58.16;97369.34;8312121;28;20327;-73
2023/01/10 00:19:42;;;;;;;2.30;1.30;;;;;;;9.07;58.76;97435.09;8310587;28;20229;-73
2023/01/10 00:23:45;;;;;;;3.63;1.60;;;;;;;8.99;58.73;97439.81;8311574;28;20319;-73
2023/01/10 00:27:56;;;;;;;2.27;1.30;;;;;;;8.88;59.45;97449.78;8311419;28;20231;-73
2023/01/10 00:31:59;;;;;;;2.43;1.30;;;;;;;8.93;59.01;97440.91;8311117;28;20277;-74
2023/01/10 00:36:04;;;;;;;2.83;1.30;;;;;;;9.13;58.30;97457.22;8311435;28;20228;-74
2023/01/10 00:40:09;;;;;;;2.37;1.50;;;;;;;9.03;58.72;97458.56;8311412;28;20249;-74
2023/01/10 00:44:12;;;;;;;1.93;1.40;;;;;;;9.10;58.52;97471.13;8309923;28;20224;-74
2023/01/10 00:48:15;;;;;;;1.50;1.40;;;;;;;9.08;58.49;97478.13;8311076;28;20235;-74
2023/01/10 00:52:18;;;;;;;3.90;1.63;;;;;;;9.04;58.96;97475.72;8311454;28;20234;-74
2023/01/10 00:56:21;;;;;;;1.97;1.37;;;;;;;9.06;58.74;97481.66;8311596;28;20231;-74
2023/01/10 01:00:25;;;;;;;2.43;1.47;;;;;;;9.07;58.90;97485.94;8311162;28;20234;-74
2023/01/10 01:04:32;;;;;;;2.10;1.57;;;;;;;9.17;58.55;97497.50;8310630;28;20249;-74
2023/01/10 01:08:35;;;;;;;1.60;1.40;;;;;;;8.84;59.12;97512.81;8315390;28;20237;-74
2023/01/10 01:12:38;;;;;;;2.17;1.60;;;;;;;9.20;58.54;97515.47;8316603;28;20241;-74
2023/01/10 01:16:42;;;;;;;3.67;1.57;;;;;;;9.24;58.35;97524.75;8316703;28;20245;-74
2023/01/10 01:20:45;;;;;;;2.40;1.50;;;;;;;9.16;58.85;97521.69;8316333;28;20397;-74
2023/01/10 01:24:48;;;;;;;2.23;1.57;;;;;;;8.97;59.11;97534.59;8316434;28;20514;-74
2023/01/10 01:28:51;;;;;;;3.03;1.73;;;;;;;9.20;58.70;97557.63;8316412;28;20230;-74
2023/01/10 01:32:55;;;;;;;1.63;1.43;;;;;;;9.19;58.46;97555.13;8315846;28;20235;-74
2023/01/10 01:36:58;;;;;;;2.00;1.47;;;;;;;9.11;59.01;97554.63;8316540;28;20235;-74
2023/01/10 01:41:01;;;;;;;1.40;1.10;;;;;;;9.07;58.38;97545.34;8316248;28;20240;-74
2023/01/10 01:45:31;;;;;;;2.00;1.10;;;;;;;9.06;58.72;97582.41;8315955;28;20235;-73
2023/01/10 01:49:38;;;;;;;2.00;1.00;;;;;;;9.12;59.26;97584.72;8315620;28;20294;-74
2023/01/10 01:53:43;;;;;;;1.47;1.17;;;;;;;8.64;59.02;97521.41;8315534;28;20229;-74
2023/01/10 01:57:47;;;;;;;1.30;1.20;;;;;;;9.25;58.36;97593.59;8315834;28;20224;-74
2023/01/10 02:01:52;;;;;;;1.10;1.00;;;;;;;9.14;58.73;97594.09;8315300;28;20235;-74
2023/01/10 02:05:56;;;;;;;0.87;0.83;;;;;;;9.20;58.61;97601.56;8315068;28;20236;-74
2023/01/10 02:10:03;;;;;;;1.30;0.90;;;;;;;9.05;58.81;97602.25;8315216;28;20491;-74
2023/01/10 02:14:06;;;;;;;1.23;1.10;;;;;;;9.04;59.16;97610.03;8315246;28;20328;-74
2023/01/10 02:18:09;;;;;;;1.97;1.10;;;;;;;9.11;59.01;97612.28;8314643;28;20227;-74
2023/01/10 02:22:37;;;;;;;1.40;0.90;;;;;;;8.93;58.88;97619.13;8315545;28;20236;-74
2023/01/10 02:27:19;;;;;;;2.27;0.90;;;;;;;8.78;59.73;97620.59;8315075;28;20230;-74
2023/01/10 02:31:36;;;;;;;1.00;1.00;;;;;;;9.06;59.23;97628.91;8310728;28;20525;-74
2023/01/10 02:35:58;;;;;;;1.13;1.00;;;;;;;9.06;59.75;97634.91;8314595;28;20226;-74
2023/01/10 02:40:07;;;;;;;1.17;1.00;;;;;;;9.09;59.21;97642.53;8314400;28;20301;-74
2023/01/10 02:44:14;;;;;;;1.10;1.00;;;;;;;8.79;59.99;97640.34;8314563;28;20254;-74
2023/01/10 02:48:21;;;;;;;0.87;0.83;;;;;;;8.96;60.17;97652.53;8314182;28;20222;-74
2023/01/10 02:52:28;;;;;;;1.37;1.27;;;;;;;9.05;59.70;97659.06;8314087;28;20298;-74
2023/01/10 02:56:50;;;;;;;1.03;1.00;;;;;;;9.06;60.00;97660.72;8314377;28;20463;-74
2023/01/10 03:00:58;;;;;;;1.30;1.20;;;;;;;9.00;60.00;97669.59;8313717;28;20235;-74
2023/01/10 03:05:05;;;;;;;1.80;1.33;;;;;;;8.82;61.01;97683.28;8313329;28;20300;-74
2023/01/10 03:09:16;;;;;;;1.50;1.40;;;;;;;8.79;60.91;97683.41;8313475;28;20295;-74
2023/01/10 03:13:21;;;;;;;1.73;1.30;;;;;;;8.95;60.61;97684.44;8313575;28;20424;-74
2023/01/10 03:17:25;;;;;;;2.60;1.60;;;;;;;9.07;60.31;97690.84;8313641;28;20235;-74
2023/01/10 03:21:30;;;;;;;1.60;1.50;;;;;;;9.07;59.89;97669.34;8313854;28;20405;-74
2023/01/10 03:25:37;;;;;;;1.70;1.60;;;;;;;9.12;60.14;97690.63;8313306;28;20273;-74
2023/01/10 03:29:43;;;;;;;2.03;1.60;;;;;;;8.96;60.99;97701.59;8313130;28;20227;-74
2023/01/10 03:33:47;;;;;;;2.47;1.80;;;;;;;9.15;60.52;97713.75;8312697;28;20277;-74
2023/01/10 03:37:56;;;;;;;1.93;1.60;;;;;;;8.94;61.08;97723.25;8313113;28;20565;-74
2023/01/10 03:42:07;;;;;;;1.90;1.60;;;;;;;8.71;60.66;97726.78;8312594;28;20231;-74
2023/01/10 03:46:13;;;;;;;2.07;1.60;;;;;;;8.65;61.59;97742.53;8312439;28;20234;-74
2023/01/10 03:50:18;;;;;;;1.80;1.70;;;;;;;8.76;60.87;97754.09;8312479;28;20231;-74
2023/01/10 03:54:21;;;;;;;1.80;1.70;;;;;;;8.66;61.10;97776.00;8310844;28;20359;-74
2023/01/10 03:58:26;;;;;;;1.80;1.70;;;;;;;8.75;60.74;97774.81;8312247;28;20518;-74
2023/01/10 04:02:31;;;;;;;3.07;2.27;;;;;;;8.60;60.87;97781.41;8311695;28;20226;-72
2023/01/10 04:06:34;;;;;;;3.67;2.07;;;;;;;8.77;60.88;97770.41;8311511;28;20239;-72
2023/01/10 04:10:37;;;;;;;2.83;1.90;;;;;;;8.84;61.07;97789.09;8311790;28;20226;-72
2023/01/10 04:14:41;;;;;;;2.30;2.10;;;;;;;8.77;60.99;97801.41;8311593;28;20231;-72
2023/01/10 04:18:44;;;;;;;2.60;2.40;;;;;;;8.62;62.07;97802.84;8311076;28;20497;-72
2023/01/10 04:22:48;;;;;;;2.50;2.30;;;;;;;8.70;61.80;97812.88;8311174;28;20328;-72
2023/01/10 04:26:51;;;;;;;4.53;2.60;;;;;;;8.81;61.41;97828.78;8310910;28;20238;-72
2023/01/10 04:30:55;;;;;;;2.60;2.10;;;;;;;9.02;60.71;97840.00;8310918;28;20239;-72
2023/01/10 04:34:58;;;;;;;3.00;2.30;;;;;;;9.03;60.73;97840.84;8310952;28;20236;-73
2023/01/10 04:39:00;;;;;;;2.50;2.10;;;;;;;8.90;61.09;97843.09;8311166;28;20407;-72
2023/01/10 04:43:03;;;;;;;4.77;2.17;;;;;;;8.95;60.67;97859.25;8318745;28;20306;-73
2023/01/10 04:47:07;;;;;;;2.30;2.10;;;;;;;8.82;60.83;97858.88;8322410;28;20410;-73
2023/01/10 04:51:10;;;;;;;3.27;2.47;;;;;;;8.55;61.30;97877.09;8322546;28;20225;-73
2023/01/10 04:55:13;;;;;;;3.97;2.40;;;;;;;8.87;61.30;97876.75;8321958;28;20240;-73
2023/01/10 04:59:16;;;;;;;3.13;2.20;;;;;;;9.09;60.21;97880.19;8321984;28;20392;-73
2023/01/10 05:03:20;;;;;;;2.37;2.00;;;;;;;8.73;60.64;97891.03;8321597;28;20229;-73
2023/01/10 05:07:23;;;;;;;2.40;2.20;;;;;;;9.09;60.06;97898.28;8321670;28;20230;-74
2023/01/10 05:11:26;;;;;;;3.40;2.50;;;;;;;8.87;60.67;97913.78;8321848;28;20234;-73
2023/01/10 05:15:29;;;;;;;3.03;2.50;;;;;;;8.84;60.15;97911.31;8321790;28;20238;-73
2023/01/10 05:19:33;;;;;;;3.40;2.33;;;;;;;8.90;59.92;97913.66;8321954;28;20531;-73
2023/01/10 05:23:36;;;;;;;2.23;2.00;;;;;;;8.83;60.25;97929.44;8321567;28;20534;-73
2023/01/10 05:27:41;;;;;;;2.87;2.40;;;;;;;8.92;59.82;97937.66;8321915;28;20257;-73
2023/01/10 05:31:44;;;;;;;3.53;2.20;;;;;;;8.59;60.55;97955.28;8320894;28;20234;-74
2023/01/10 05:35:48;;;;;;;5.17;2.30;;;;;;;8.67;60.04;97958.41;8320876;28;20232;-73
2023/01/10 05:39:51;;;;;;;4.37;2.20;;;;;;;8.74;59.56;97951.28;8321430;28;20317;-73
2023/01/10 05:43:54;;;;;;;3.90;2.27;;;;;;;8.80;59.69;97971.72;8321518;28;20245;-72
2023/01/10 05:47:57;;;;;;;4.63;2.40;;;;;;;8.72;59.98;97982.31;8323861;28;20230;-72
2023/01/10 05:52:01;;;;;;;3.97;2.47;;;;;;;8.67;59.81;97980.81;8320284;28;20257;-73
2023/01/10 05:56:06;;;;;;;5.50;2.67;;;;;;;8.65;59.58;97980.84;8315266;28;20233;-73
2023/01/10 06:00:10;;;;;;;3.37;2.70;;;;;;;8.81;59.59;97996.63;8315859;28;20510;-73
2023/01/10 06:04:14;;;;;;;4.13;2.90;;;;;;;8.58;59.87;97998.28;8315803;28;20227;-73
2023/01/10 06:08:18;;;;;;;5.40;2.80;;;;;;;8.61;59.22;98015.44;8315474;28;20273;-72
2023/01/10 06:12:21;;;;;;;4.13;2.83;;;;;;;8.75;59.11;98025.25;8315493;28;20234;-73
2023/01/10 06:16:24;;;;;;;4.13;2.93;;;;;;;8.51;59.26;98019.22;8315264;28;20246;-73
2023/01/10 06:20:27;;;;;;;3.00;2.33;;;;;;;8.72;58.89;98041.72;8315037;28;20253;-72
2023/01/10 06:24:31;;;;;;;5.83;2.90;;;;;;;8.59;59.08;98054.19;8315381;28;20232;-72
2023/01/10 06:28:34;;;;;;;4.90;2.77;;;;;;;8.83;59.16;98059.38;8315368;28;20223;-71
2023/01/10 06:32:37;;;;;;;5.63;2.77;;;;;;;8.72;58.67;98067.53;8315329;28;20227;-72
2023/01/10 06:36:40;;;;;;;4.47;2.53;;;;;;;8.99;58.63;98082.94;8314672;28;20232;-73
2023/01/10 06:40:44;;;;;;;3.40;2.50;;;;;;;8.87;58.54;98094.56;8314060;28;20242;-73
2023/01/10 06:44:47;;;;;;;4.13;2.17;;;;;;;9.11;57.85;98097.16;8314415;28;20226;-73
2023/01/10 06:48:50;;;;;;;2.73;2.00;;;;;;;8.47;59.03;98100.22;8314124;28;20230;-73
2023/01/10 06:52:56;;;;;;;4.00;2.20;;;;;;;8.69;58.75;98115.84;8314078;28;20223;-73
2023/01/10 06:57:01;;;;;;;5.40;2.00;;;;;;;8.66;58.42;98134.00;8313397;28;20438;-74
2023/01/10 07:01:03;;;;;;;4.53;1.90;;;;;;;8.81;58.74;98133.50;8313698;28;20218;-73
2023/01/10 07:05:07;;;;;;;5.23;2.43;;;;;;;8.56;57.68;98142.06;8313154;28;20231;-73
2023/01/10 07:09:13;;;;;;;4.70;1.97;;;;;;;8.99;57.29;98155.28;8313045;28;20239;-73
2023/01/10 07:13:17;;;;;;;4.23;2.20;;;;;;;8.99;57.43;98165.59;8313271;28;20226;-73
2023/01/10 07:17:20;;;;;;;2.30;1.43;;;;;;;8.84;57.24;98166.13;8312850;28;20249;-73
2023/01/10 07:21:22;;;;;;;2.80;1.90;;;;;;;8.82;57.21;98173.09;8313554;28;20230;-73
2023/01/10 07:25:26;;;;;;;3.30;1.47;;;;;;;8.89;57.35;98179.72;8313623;28;20242;-73
2023/01/10 07:29:31;;;;;;;6.13;1.70;;;;;;;9.10;56.86;98188.47;8313416;28;20399;-74
2023/01/10 07:33:33;;;;;;;4.07;1.73;;;;;;;9.00;57.25;98201.72;8313160;28;20233;-73
2023/01/10 07:37:36;;;;;;;4.83;1.80;;;;;;;8.94;57.59;98221.72;8312774;28;20538;-73
2023/01/10 07:41:39;;;;;;;5.33;1.87;;;;;;;8.85;57.37;98233.19;8312084;28;20228;-73
2023/01/10 07:45:43;;;;;;;5.90;1.50;;;;;;;9.00;57.39;98239.59;8311893;28;20230;-73
2023/01/10 07:49:46;;;;;;;5.57;1.87;;;;;;;8.98;57.79;98251.72;8312278;28;20227;-73
2023/01/10 07:53:49;;;;;;;3.63;1.60;;;;;;;8.86;57.60;98239.22;8312500;28;20391;-73
2023/01/10 07:57:51;;;;;;;5.03;1.53;;;;;;;8.85;57.69;98260.78;8312414;28;20235;-74
2023/01/10 08:01:55;;;;;;;5.27;1.67;;;;;;;8.62;58.51;98264.94;8313028;28;20238;-73
2023/01/10 08:05:59;;;;;;;5.23;1.70;;;;;;;8.66;58.01;98255.34;8313053;28;20245;-75
2023/01/10 08:10:02;;;;;;;4.00;1.50;;;;;;;8.79;57.99;98272.16;8312619;28;20301;-75
2023/01/10 08:14:05;;;;;;;6.60;1.63;;;;;;;8.78;57.94;98267.91;8312527;28;20245;-74
2023/01/10 08:18:09;;;;;;;5.10;1.60;;;;;;;8.93;57.39;98266.53;8312035;28;20222;-74
2023/01/10 08:22:12;;;;;;;5.43;1.70;;;;;;;9.17;56.86;98275.22;8313254;28;20227;-75
2023/01/10 08:26:15;;;;;;;5.80;1.90;;;;;;;8.99;56.81;98284.44;8313089;28;20253;-75
2023/01/10 08:30:18;;;;;;;5.60;2.03;;;;;;;9.04;57.19;98292.00;8312847;28;20417;-75
2023/01/10 08:34:23;;;;;;;3.90;1.80;;;;;;;8.87;57.89;98279.66;8312900;28;20236;-74
2023/01/10 08:38:26;;;;;;;5.73;1.80;;;;;;;8.86;57.47;98303.81;8312337;28;20430;-75
2023/01/10 08:42:28;;;;;;;3.73;2.13;;;;;;;9.23;56.68;98295.66;8312030;28;20237;-75
2023/01/10 08:46:31;;;;;;;4.90;2.43;;;;;;;9.07;57.08;98297.09;8311411;28;20234;-75
2023/01/10 08:50:36;;;;;;;5.70;2.43;;;;;;;9.06;58.19;98306.56;8312207;28;20227;-76
2023/01/10 08:54:39;;;;;;;7.63;3.93;;;;;;;12.00;74.71;98317.81;8318348;28;20441;-79
2023/01/10 08:58:42;;;;;;;5.30;2.33;;;;;;;12.19;62.96;98331.66;8312252;28;20331;-75
2023/01/10 09:02:45;;;;;;;7.00;2.17;;;;;;;12.32;56.92;98334.53;8311247;28;20525;-75
2023/01/10 09:06:49;;;;;;;5.47;2.13;;;;;;;12.65;54.66;98344.28;8310893;28;20234;-75
2023/01/10 09:10:52;;;;;;;5.53;1.93;;;;;;;11.89;49.48;98346.78;8311202;28;20253;-74
2023/01/10 09:14:55;;;;;;;7.03;1.90;;;;;;;10.73;52.10;98351.50;8311283;28;20242;-73
2023/01/10 09:18:58;;;;;;;8.33;2.37;;;;;;;10.39;53.96;98364.91;8310986;28;20231;-73
2023/01/10 09:23:07;;;;;;;4.73;2.07;;;;;;;10.20;53.42;98372.47;8310967;28;20565;-73
2023/01/10 09:27:10;;;;;;;5.87;2.10;;;;;;;9.91;54.86;98373.53;8311284;28;20586;-73
2023/01/10 09:31:13;;;;;;;5.20;2.00;;;;;;;9.86;54.84;98394.38;8316516;28;20559;-72
2023/01/10 09:35:16;;;;;;;6.13;2.50;;;;;;;9.93;54.25;98393.25;8316082;28;20416;-73
2023/01/10 09:39:20;;;;;;;5.73;2.43;;;;;;;9.53;55.05;98388.59;8316286;28;20501;-72
2023/01/10 09:43:30;;;;;;;5.80;2.30;;;;;;;9.85;54.32;98404.78;8315730;28;20237;-73
2023/01/10 09:47:36;;;;;;;4.37;1.90;;;;;;;9.82;54.79;98410.88;8315562;28;20260;-73
2023/01/10 09:51:41;;;;;;;4.43;1.73;;;;;;;9.65;54.66;98384.75;8316095;28;20536;-73
2023/01/10 09:55:48;;;;;;;5.80;2.20;;;;;;;9.69;54.42;98388.91;8315731;28;20240;-73
2023/01/10 09:59:53;;;;;;;6.63;2.63;;;;;;;9.86;53.74;98384.03;8315884;28;20426;-74
2023/01/10 10:04:03;;;;;;;4.67;2.10;;;;;;;9.67;54.00;98389.00;8316076;28;20540;-74
2023/01/10 10:08:16;;;;;;;6.10;1.83;;;;;;;9.67;54.28;98411.41;8315124;28;20231;-74
2023/01/10 10:12:26;;;;;;;7.20;2.63;;;;;;;9.53;53.79;98412.72;8315132;28;20299;-75
2023/01/10 10:16:37;;;;;;;7.73;2.70;;;;;;;9.31;53.66;98424.63;8314891;28;20228;-74
2023/01/10 10:20:49;;;;;;;8.97;2.87;;;;;;;9.76;53.91;98431.78;8314902;28;20295;-74
2023/01/10 10:24:59;;;;;;;9.37;2.80;;;;;;;9.54;53.77;98431.69;8314923;28;20232;-74
2023/01/10 10:29:18;;;;;;;5.80;2.30;;;;;;;9.76;53.65;98418.84;8314776;28;20273;-74
2023/01/10 10:33:33;;;;;;;3.63;2.40;;;;;;;9.74;53.52;98428.41;8314352;28;20232;-74
2023/01/10 10:37:38;;;;;;;9.33;3.53;;;;;;;9.98;53.58;98426.75;8314307;28;20604;-73
2023/01/10 10:41:43;;;;;;;9.37;4.00;;;;;;;9.86;53.20;98428.03;8313435;28;20228;-74
2023/01/10 10:45:50;;;;;;;6.60;2.93;;;;;;;9.61;53.13;98425.38;8314359;28;20235;-74
2023/01/10 10:49:59;;;;;;;6.40;2.30;;;;;;;9.88;52.45;98435.69;8313877;28;20230;-74
2023/01/10 10:54:02;;;;;;;5.77;2.40;;;;;;;9.69;53.19;98420.81;8314200;28;20237;-74
2023/01/10 10:58:07;;;;;;;4.87;2.10;;;;;;;9.80;52.94;98425.63;8314140;28;20566;-74
2023/01/10 11:02:30;;;;;;;7.07;2.73;;;;;;;9.95;51.47;98417.31;8314062;28;20231;-73
2023/01/10 11:06:33;;;;;;;4.73;2.07;;;;;;;9.95;51.88;98426.84;8313562;28;20236;-74
2023/01/10 11:10:37;;;;;;;6.67;1.70;;;;;;;9.76;51.71;98424.88;8314072;28;20235;-74
2023/01/10 11:14:41;;;;;;;5.97;2.33;;;;;;;10.00;50.29;98439.63;8313872;28;20239;-75
2023/01/10 11:18:46;;;;;;;8.70;2.60;;;;;;;9.99;50.37;98446.53;8313147;28;20521;-75
2023/01/10 11:22:52;;;;;;;6.93;2.70;;;;;;;10.06;50.57;98457.53;8313440;28;20500;-74
2023/01/10 11:26:56;;;;;;;8.27;2.60;;;;;;;9.77;51.38;98465.38;8312930;28;20253;-76
2023/01/10 11:31:00;;;;;;;6.63;1.87;;;;;;;9.56;50.98;98420.38;8312716;28;20236;-74
2023/01/10 11:35:08;;;;;;;7.43;2.30;;;;;;;10.03;50.48;98450.69;8312591;28;20316;-75
2023/01/10 11:39:15;;;;;;;7.30;1.83;;;;;;;9.60;51.09;98439.22;8312729;28;20235;-74
2023/01/10 11:43:27;;;;;;;6.67;1.80;;;;;;;9.88;50.73;98441.75;8312358;28;20229;-74
2023/01/10 11:47:31;;;;;;;7.03;2.00;;;;;;;9.71;51.32;98438.84;8312829;28;20241;-75
2023/01/10 11:51:45;;;;;;;4.93;2.07;;;;;;;9.91;51.11;98439.03;8311421;28;20227;-73
2023/01/10 11:55:48;;;;;;;4.57;1.77;;;;;;;9.90;51.49;98439.94;8312092;28;20237;-74
2023/01/10 11:59:52;;;;;;;7.23;2.10;;;;;;;10.08;52.17;98447.97;8311894;28;20243;-72
2023/01/10 12:03:55;;;;;;;8.13;2.50;;;;;;;9.77;51.44;98449.00;8312125;28;20242;-74
2023/01/10 12:08:05;;;;;;;8.70;2.10;;;;;;;9.72;51.57;98441.38;8311418;28;20238;-74
2023/01/10 12:12:21;;;;;;;6.40;2.03;;;;;;;9.82;51.24;98456.59;8312149;28;20392;-74
2023/01/10 12:16:25;;;;;;;7.40;2.00;;;;;;;9.79;51.91;98449.81;8311942;28;20248;-75
2023/01/10 12:20:31;;;;;;;6.50;1.93;;;;;;;9.25;52.59;98446.34;8311684;28;20616;-74
2023/01/10 12:24:36;;;;;;;10.07;2.90;;;;;;;9.29;52.31;98450.56;8311796;28;20229;-73
2023/01/10 12:28:42;;;;;;;10.87;2.80;;;;;;;9.30;52.30;98457.41;8312148;28;20225;-74
2023/01/10 12:32:47;;;;;;;8.47;3.43;;;;;;;9.33;52.42;98452.16;8310862;28;20227;-74
2023/01/10 12:36:58;;;;;;;12.53;4.60;;;;;;;9.48;51.67;98455.13;8312585;28;20387;-75
2023/01/10 12:41:02;;;;;;;9.70;2.50;;;;;;;9.63;51.60;98454.63;8312675;28;22327;-77
2023/01/10 12:45:09;;;;;;;14.27;8.20;;;;;;;9.72;51.10;98454.31;8310583;28;20225;-74
2023/01/10 12:49:18;;;;;;;11.10;3.80;;;;;;;9.86;51.46;98451.28;8312891;28;20232;-74
2023/01/10 12:53:29;;;;;;;9.13;2.23;;;;;;;9.73;51.49;98444.84;8312633;28;20239;-74
2023/01/10 12:57:38;;;;;;;7.77;2.27;;;;;;;9.77;50.87;98444.69;8312550;28;20424;-74
2023/01/10 13:01:42;;;;;;;7.10;2.10;;;;;;;9.67;52.20;98442.44;8312518;28;20237;-74
2023/01/10 13:05:48;;;;;;;8.07;2.13;;;;;;;9.69;50.84;98441.50;8319006;28;20252;-73
2023/01/10 13:09:51;;;;;;;10.27;2.40;;;;;;;9.74;51.16;98456.88;8319189;28;20243;-74
2023/01/10 13:13:58;;;;;;;5.43;2.00;;;;;;;9.86;50.07;98451.28;8318924;28;20229;-73
2023/01/10 13:18:03;;;;;;;7.57;2.77;;;;;;;10.13;49.51;98443.50;8318979;28;27263;-73
2023/01/10 13:22:20;;;;;;;7.97;2.10;;;;;;;10.16;48.68;98441.59;8318846;28;20232;-73
2023/01/10 13:26:23;;;;;;;7.03;2.70;;;;;;;10.18;48.63;98433.78;8318637;28;20232;-74
2023/01/10 13:30:29;;;;;;;9.30;2.37;;;;;;;10.23;49.50;98438.81;8318509;28;20540;-74
2023/01/10 13:34:33;;;;;;;9.10;2.13;;;;;;;10.02;49.56;98440.44;8318549;28;20445;-74
2023/01/10 13:38:44;;;;;;;7.17;1.90;;;;;;;10.56;48.01;98436.78;8318184;28;20252;-74
2023/01/10 13:43:33;;;;;;;5.23;1.87;;;;;;;10.58;48.13;98434.97;8317895;28;20439;-74
2023/01/10 13:48:02;;;;;;;7.33;1.60;;;;;;;10.71;46.55;98433.63;8317837;28;20433;-75
2023/01/10 13:52:28;;;;;;;8.23;1.83;;;;;;;10.61;47.86;98442.66;8317601;28;20230;-74
2023/01/10 13:56:37;;;;;;;6.63;1.73;;;;;;;10.44;47.71;98448.44;8317619;28;20232;-76
2023/01/10 14:05:17;;;;;;;6.90;2.20;;;;;;;10.45;47.93;98450.16;8317088;28;20268;-74
2023/01/10 14:09:44;;;;;;;6.07;2.00;;;;;;;10.37;48.89;98472.84;8317261;28;20536;-74
2023/01/10 14:13:50;;;;;;;8.83;2.10;;;;;;;10.45;48.40;98465.69;8301606;28;20234;-75
2023/01/10 14:17:57;;;;;;;5.07;1.97;;;;;;;9.96;49.46;98475.13;8316966;28;20257;-74
2023/01/10 14:22:02;;;;;;;8.50;2.73;;;;;;;10.05;49.92;98482.56;8317077;28;20229;-74
2023/01/10 14:26:05;;;;;;;11.13;2.70;;;;;;;10.03;49.93;98486.94;8316744;28;20341;-74
2023/01/10 14:30:15;;;;;;;8.47;2.40;;;;;;;9.98;50.62;98491.44;8316756;28;20237;-75
2023/01/10 14:34:21;;;;;;;10.37;2.70;;;;;;;9.95;50.70;98494.09;8316372;28;20307;-74
2023/01/10 14:38:27;;;;;;;10.97;2.83;;;;;;;9.88;50.36;98492.63;8316640;28;20237;-75
2023/01/10 14:42:30;;;;;;;8.10;2.63;;;;;;;9.81;51.27;98486.81;8316094;28;20270;-74
2023/01/10 14:46:39;;;;;;;8.37;2.20;;;;;;;9.86;50.89;98487.50;8316310;28;20240;-74
2023/01/10 14:50:43;;;;;;;6.87;2.33;;;;;;;9.77;51.10;98478.31;8315598;28;20300;-74
2023/01/10 14:54:47;;;;;;;8.07;2.20;;;;;;;9.85;51.15;98482.38;8315976;28;20518;-74
2023/01/10 14:58:50;;;;;;;8.37;2.40;;;;;;;9.96;51.02;98488.06;8315764;28;20583;-74
2023/01/10 15:02:53;;;;;;;7.30;2.23;;;;;;;9.69;51.21;98476.84;8315606;28;20244;-74
2023/01/10 15:06:58;;;;;;;6.67;2.17;;;;;;;9.73;51.05;98486.22;8315469;28;20245;-75
2023/01/10 15:11:05;;;;;;;11.43;2.40;;;;;;;9.75;50.93;98482.69;8315645;28;20264;-74
2023/01/10 15:15:13;;;;;;;8.13;2.50;;;;;;;9.71;50.69;98478.50;8315584;28;20336;-74
2023/01/10 15:19:18;;;;;;;10.40;3.20;;;;;;;9.80;50.86;98469.59;8315076;28;20252;-74
2023/01/10 15:23:23;;;;;;;10.03;2.77;;;;;;;9.69;51.00;98479.44;8315322;28;20246;-74
2023/01/10 15:27:28;;;;;;;10.13;2.90;;;;;;;9.81;51.32;98470.47;8314903;28;20240;-74
2023/01/10 15:31:31;;;;;;;11.50;3.73;;;;;;;9.48;51.35;98461.16;8314798;28;20229;-75
2023/01/10 15:35:34;;;;;;;16.67;5.07;;;;;;;9.81;51.60;98463.53;8314750;28;20524;-74
2023/01/10 15:39:40;;;;;;;11.20;3.73;;;;;;;9.69;51.28;98467.38;8314444;28;20236;-75
2023/01/10 15:43:44;;;;;;;11.47;4.30;;;;;;;9.82;51.70;98465.22;8314123;28;20241;-75
2023/01/10 15:47:53;;;;;;;9.37;3.10;;;;;;;9.73;51.50;98445.69;8313900;28;20244;-74
2023/01/10 15:51:57;;;;;;;9.30;2.67;;;;;;;9.41;51.93;98441.56;8314348;28;20239;-75
2023/01/10 15:56:09;;;;;;;11.40;2.73;;;;;;;9.77;51.40;98444.69;8314161;28;20235;-75
2023/01/10 16:00:17;;;;;;;10.20;2.47;;;;;;;9.58;51.42;98443.59;8313863;28;20227;-75
2023/01/10 16:04:20;;;;;;;8.07;2.93;;;;;;;9.55;51.89;98446.28;8314047;28;20232;-75
2023/01/10 16:08:24;;;;;;;10.13;3.17;;;;;;;9.59;51.43;98433.22;8313725;28;20240;-74
2023/01/10 16:16:55;;;;;;;12.97;3.97;;;;;;;9.57;51.16;98432.41;8313020;28;20234;-76
2023/01/10 16:21:00;;;;;;;9.57;4.10;;;;;;;9.40;51.46;98401.06;8313639;28;20509;-74
2023/01/10 16:25:03;;;;;;;13.33;4.10;;;;;;;9.56;51.36;98428.13;8313516;28;20224;-75
2023/01/10 16:29:06;;;;;;;15.20;4.60;;;;;;;9.55;51.79;98425.59;8313493;28;20232;-74
2023/01/10 16:33:14;;;;;;;12.97;4.10;;;;;;;9.51;51.98;98429.19;8313205;28;20223;-75
2023/01/10 16:37:17;;;;;;;11.67;4.07;;;;;;;9.47;52.15;98433.59;8312484;28;20233;-75
2023/01/10 16:45:40;;;;;;;13.60;4.67;;;;;;;9.35;52.84;98432.25;8313236;28;20504;-75
2023/01/10 16:49:45;;;;;;;9.97;5.00;;;;;;;9.28;52.62;98429.91;8312862;28;20236;-73
2023/01/10 16:53:49;;;;;;;13.33;5.33;;;;;;;9.28;52.62;98422.16;8313020;28;20467;-74
2023/01/10 16:57:51;;;;;;;12.67;5.80;;;;;;;9.22;53.24;98425.78;8312663;28;20236;-75
2023/01/10 17:01:56;;;;;;;10.63;5.00;;;;;;;9.23;53.22;98429.22;8312626;28;20223;-74
2023/01/10 17:06:01;;;;;;;11.13;4.30;;;;;;;9.27;53.07;98426.50;8312526;28;20379;-74
2023/01/10 17:10:04;;;;;;;8.47;3.90;;;;;;;9.02;53.58;98430.72;8312731;28;20290;-74
2023/01/10 17:14:07;;;;;;;9.77;4.23;;;;;;;9.08;53.46;98426.22;8312388;28;20234;-73
2023/01/10 17:18:10;;;;;;;9.10;4.40;;;;;;;9.05;53.46;98422.91;8312353;28;20234;-75
2023/01/10 17:22:14;;;;;;;11.73;6.93;;;;;;;8.80;54.12;98408.13;8312198;28;20231;-75
2023/01/10 17:26:18;;;;;;;10.17;5.00;;;;;;;8.85;53.82;98408.81;8312563;28;20235;-75
2023/01/10 17:30:21;;;;;;;9.87;4.60;;;;;;;8.87;53.90;98408.78;8312439;28;20532;-75
2023/01/10 17:34:23;;;;;;;7.87;3.30;;;;;;;8.55;54.66;98384.78;8312179;28;20519;-73
2023/01/10 17:38:28;;;;;;;7.20;3.00;;;;;;;8.71;55.00;98408.41;8311945;28;20254;-74
2023/01/10 17:42:31;;;;;;;10.10;3.30;;;;;;;8.36;55.99;98397.34;8311992;28;20230;-74
2023/01/10 17:46:34;;;;;;;11.57;6.03;;;;;;;8.55;55.25;98401.13;8312423;28;20231;-74
2023/01/10 17:50:37;;;;;;;9.53;4.17;;;;;;;8.56;55.17;98389.03;8316591;28;20235;-74
2023/01/10 17:54:41;;;;;;;9.37;3.27;;;;;;;8.59;54.79;98388.97;8317595;28;20510;-74
2023/01/10 17:58:46;;;;;;;9.73;3.20;;;;;;;8.28;55.59;98388.97;8317015;28;20230;-74
2023/01/10 18:02:48;;;;;;;10.50;3.60;;;;;;;8.60;55.34;98376.03;8317477;28;20231;-74
2023/01/10 18:06:51;;;;;;;7.43;3.80;;;;;;;8.67;54.66;98368.09;8317074;28;20346;-74
2023/01/10 18:11:00;;;;;;;8.63;3.53;;;;;;;8.85;54.33;98390.75;8317233;28;20234;-74
2023/01/10 18:15:04;;;;;;;9.00;3.33;;;;;;;8.80;54.43;98377.16;8317255;28;20224;-75
2023/01/10 18:19:07;;;;;;;10.97;3.67;;;;;;;8.21;55.55;98378.81;8317102;28;20240;-73
2023/01/10 18:23:21;;;;;;;7.33;3.23;;;;;;;8.59;54.89;98386.38;8316880;28;20239;-74
2023/01/10 18:27:26;;;;;;;6.63;3.40;;;;;;;8.78;54.64;98394.44;8316929;28;20226;-73
2023/01/10 18:31:29;;;;;;;7.47;3.40;;;;;;;8.76;54.69;98386.72;8316799;28;20416;-73
2023/01/10 18:35:32;;;;;;;10.43;4.10;;;;;;;8.75;54.32;98384.19;8316518;28;20219;-73
2023/01/10 18:39:34;;;;;;;7.30;3.73;;;;;;;8.80;54.27;98385.72;8316728;28;20242;-74
2023/01/10 18:43:39;;;;;;;7.53;3.60;;;;;;;8.66;54.31;98376.72;8316512;28;20227;-80
2023/01/10 18:47:41;;;;;;;7.20;3.20;;;;;;;8.66;54.29;98368.97;8316087;28;20242;-78
2023/01/10 18:51:44;;;;;;;5.77;3.10;;;;;;;8.64;54.34;98360.41;8316137;28;20423;-81
2023/01/10 18:55:52;;;;;;;8.03;3.33;;;;;;;8.53;54.61;98361.59;8316339;28;20223;-85
2023/01/10 18:59:57;;;;;;;7.43;3.07;;;;;;;8.69;54.27;98356.81;8315055;28;20568;-81
2023/01/10 19:04:03;;;;;;;9.53;3.10;;;;;;;10.43;62.89;98338.00;8315412;28;20296;-78
2023/01/10 19:08:07;;;;;;;6.23;3.03;;;;;;;9.81;53.30;98338.53;8314973;28;20500;-78
2023/01/10 19:12:10;;;;;;;9.03;4.07;;;;;;;9.38;53.34;98348.59;8315324;28;20304;-80
2023/01/10 19:16:16;;;;;;;7.57;3.57;;;;;;;9.16;53.16;98326.06;8315101;28;20236;-79
2023/01/10 19:20:19;;;;;;;5.00;2.87;;;;;;;9.15;53.01;98336.44;8314824;28;20429;-77
2023/01/10 19:24:26;;;;;;;8.00;3.10;;;;;;;9.16;53.01;98335.56;8315895;28;20425;-81
2023/01/10 19:28:29;;;;;;;6.50;3.57;;;;;;;8.99;53.39;98341.25;8316006;28;20524;-80
2023/01/10 19:32:34;;;;;;;7.67;3.07;;;;;;;9.50;56.18;98340.44;8315763;28;20231;-80
2023/01/10 19:36:40;;;;;;;7.20;3.43;;;;;;;8.93;53.49;98331.97;8316031;28;20220;-80
2023/01/10 19:40:43;;;;;;;5.90;3.57;;;;;;;8.72;53.72;98333.47;8315378;28;20537;-81
2023/01/10 19:44:46;;;;;;;6.23;3.53;;;;;;;8.81;53.59;98337.50;8315981;28;20560;-78